Time;durP1;ratioP1;P1;durP2;ratioP2;P2;SDS_P1;SDS_P2;PMS_P1;PMS_P2;Temp;Humidity;BMP_temperature;BMP_pressure;BME280_temperature;BME280_humidity;BME280_pressure;Samples;Min_cycle;Max_cycle;Signal;HPM_P1;HPM_P2
2023/02/07 00:01:53;;;;;;;2.22;1.15;;;26.10;56.30;;;;;;4156240;28;20034;-41
2023/02/07 00:04:16;;;;;;;2.63;1.27;;;25.90;55.70;;;;;;4152423;28;20045;-43
2023/02/07 00:06:38;;;;;;;2.13;0.88;;;25.80;55.00;;;;;;4152925;28;20856;-40
2023/02/07 00:09:03;;;;;;;1.60;0.93;;;25.70;55.20;;;;;;4155052;28;20060;-40
2023/02/07 00:11:26;;;;;;;1.95;1.10;;;25.60;55.60;;;;;;4151851;28;20140;-40
2023/02/07 00:13:50;;;;;;;2.17;0.90;;;25.40;55.60;;;;;;4155241;28;20041;-40
2023/02/07 00:16:13;;;;;;;2.25;1.23;;;25.40;55.10;;;;;;4155353;28;20095;-40
2023/02/07 00:18:36;;;;;;;2.40;1.27;;;25.20;55.00;;;;;;4154795;28;20044;-42
2023/02/07 00:21:19;;;;;;;3.33;1.10;;;25.10;55.00;;;;;;4155059;28;20131;-42
2023/02/07 00:23:42;;;;;;;2.85;1.30;;;25.00;56.20;;;;;;4156624;28;20034;-44
2023/02/07 00:26:06;;;;;;;1.98;1.02;;;24.90;55.20;;;;;;4150749;28;20037;-48
2023/02/07 00:28:29;;;;;;;2.33;1.20;;;24.80;56.10;;;;;;4155124;28;20049;-45
2023/02/07 00:31:00;;;;;;;2.75;1.20;;;24.70;56.60;;;;;;4155867;28;20493;-48
2023/02/07 00:33:23;;;;;;;2.40;1.40;;;24.60;56.40;;;;;;4153394;28;20042;-43
2023/02/07 00:35:45;;;;;;;2.63;1.10;;;24.50;55.20;;;;;;4151308;28;20127;-43
2023/02/07 00:38:08;;;;;;;3.10;1.33;;;24.40;55.20;;;;;;4157195;28;20495;-43
2023/02/07 00:40:31;;;;;;;1.83;1.30;;;24.40;55.50;;;;;;4152274;28;20041;-50
2023/02/07 00:42:53;;;;;;;1.60;1.02;;;24.30;55.40;;;;;;4156644;28;20049;-41
2023/02/07 00:45:15;;;;;;;1.90;0.90;;;24.20;55.60;;;;;;4155281;28;20049;-44
2023/02/07 00:47:38;;;;;;;2.60;1.30;;;24.20;55.40;;;;;;4154503;28;20041;-42
2023/02/07 00:50:00;;;;;;;1.70;1.17;;;24.10;55.20;;;;;;4156172;28;20038;-41
2023/02/07 00:52:23;;;;;;;2.67;1.10;;;24.00;55.70;;;;;;4156747;28;20037;-44
2023/02/07 00:54:45;;;;;;;3.83;1.20;;;23.90;55.40;;;;;;4155566;28;20509;-43
2023/02/07 00:57:08;;;;;;;1.83;1.05;;;23.80;55.70;;;;;;4156474;28;20042;-46
2023/02/07 00:59:30;;;;;;;2.80;1.33;;;23.80;55.90;;;;;;4155677;28;20041;-44
2023/02/07 01:01:52;;;;;;;2.38;1.30;;;23.70;56.00;;;;;;4157116;28;20040;-42
2023/02/07 01:04:15;;;;;;;2.83;1.50;;;23.60;55.80;;;;;;4156079;28;20037;-42
2023/02/07 01:06:37;;;;;;;1.58;1.10;;;23.60;56.20;;;;;;4151442;28;20358;-42
2023/02/07 01:09:01;;;;;;;2.58;1.00;;;23.50;56.40;;;;;;4153944;28;20632;-50
2023/02/07 01:11:23;;;;;;;2.25;1.15;;;23.50;56.50;;;;;;4147821;28;20075;-44
2023/02/07 01:13:46;;;;;;;1.75;1.25;;;23.40;56.70;;;;;;4156835;28;20103;-41
2023/02/07 01:16:18;;;;;;;2.42;1.20;;;23.30;56.60;;;;;;4146358;28;20045;-43
2023/02/07 01:18:40;;;;;;;1.90;1.38;;;23.20;56.70;;;;;;4155083;28;20129;-43
2023/02/07 01:21:12;;;;;;;2.08;1.30;;;23.20;56.70;;;;;;4156208;28;20045;-47
2023/02/07 01:23:34;;;;;;;1.80;1.20;;;23.20;57.20;;;;;;4155626;28;20172;-44
2023/02/07 01:25:57;;;;;;;3.60;1.50;;;23.20;58.20;;;;;;4149157;28;20297;-42
2023/02/07 01:28:19;;;;;;;2.72;1.42;;;23.10;57.30;;;;;;4155216;28;20086;-43
2023/02/07 01:30:43;;;;;;;1.92;1.27;;;23.10;57.80;;;;;;4152067;28;20135;-44
2023/02/07 01:33:06;;;;;;;2.38;1.50;;;23.10;57.50;;;;;;4155582;28;20501;-45
2023/02/07 01:35:28;;;;;;;2.47;1.52;;;23.10;58.20;;;;;;4155002;28;20119;-46
2023/02/07 01:37:51;;;;;;;1.65;1.13;;;23.00;57.80;;;;;;4155039;28;20486;-48
2023/02/07 01:40:13;;;;;;;2.25;1.40;;;23.00;57.80;;;;;;4149198;28;20161;-46
2023/02/07 01:42:36;;;;;;;2.45;1.25;;;22.90;57.80;;;;;;4153192;28;20037;-48
2023/02/07 01:45:15;;;;;;;2.55;1.45;;;22.90;57.80;;;;;;4155659;28;20195;-43
2023/02/07 01:47:38;;;;;;;2.20;1.25;;;22.90;58.00;;;;;;4149806;28;20037;-42
2023/02/07 01:50:00;;;;;;;1.83;1.13;;;22.80;57.90;;;;;;4153220;28;20124;-42
2023/02/07 01:52:35;;;;;;;2.10;1.40;;;22.80;58.10;;;;;;4156742;28;20068;-45
2023/02/07 01:55:05;;;;;;;2.75;1.42;;;22.80;58.10;;;;;;4153506;28;20045;-43
2023/02/07 01:57:28;;;;;;;1.27;1.15;;;22.80;58.20;;;;;;4154741;28;20516;-46
2023/02/07 01:59:56;;;;;;;2.38;1.60;;;22.70;58.50;;;;;;4154789;28;20041;-49
2023/02/07 02:02:22;;;;;;;1.75;1.50;;;22.70;58.50;;;;;;4155975;28;20044;-44
2023/02/07 02:04:45;;;;;;;2.63;1.30;;;22.60;58.50;;;;;;4153809;28;20068;-43
2023/02/07 02:07:09;;;;;;;1.48;1.20;;;22.60;58.60;;;;;;4155109;28;20117;-42
2023/02/07 02:09:32;;;;;;;2.10;1.27;;;22.60;58.70;;;;;;4154140;28;20037;-47
2023/02/07 02:12:17;;;;;;;2.70;1.67;;;22.50;58.70;;;;;;4153935;28;20041;-43
2023/02/07 02:14:57;;;;;;;2.40;1.25;;;22.50;58.50;;;;;;4154665;28;20056;-44
2023/02/07 02:17:53;;;;;;;2.05;1.35;;;22.50;58.40;;;;;;4154780;28;20464;-41
2023/02/07 02:20:30;;;;;;;1.88;1.15;;;22.40;58.60;;;;;;4153007;28;20455;-41
2023/02/07 02:23:12;;;;;;;2.47;1.38;;;22.50;58.90;;;;;;4154545;28;20525;-42
2023/02/07 02:26:11;;;;;;;2.03;1.42;;;22.40;58.90;;;;;;4146395;28;20136;-42
2023/02/07 02:28:49;;;;;;;3.00;1.58;;;22.40;59.00;;;;;;4153725;28;20512;-43
2023/02/07 02:31:20;;;;;;;3.05;1.63;;;22.40;59.10;;;;;;4152708;28;20049;-45
2023/02/07 02:33:59;;;;;;;2.25;1.10;;;22.40;59.30;;;;;;4152882;28;20038;-41
2023/02/07 02:36:35;;;;;;;1.58;1.10;;;22.40;60.00;;;;;;4153807;28;20061;-44
2023/02/07 02:39:22;;;;;;;1.55;1.00;;;22.60;60.50;;;;;;4153481;28;20045;-42
2023/02/07 02:41:53;;;;;;;2.78;1.45;;;22.80;61.00;;;;;;4153287;28;20037;-43
2023/02/07 02:44:44;;;;;;;2.97;1.60;;;23.10;61.40;;;;;;4153495;28;20450;-43
2023/02/07 02:47:09;;;;;;;4.75;2.13;;;23.30;61.70;;;;;;4136719;28;20041;-44
2023/02/07 02:49:33;;;;;;;7.43;2.85;;;23.50;61.80;;;;;;4154986;28;20048;-42
2023/02/07 02:51:56;;;;;;;8.10;2.88;;;23.80;62.20;;;;;;4149200;28;20068;-49
2023/02/07 02:54:31;;;;;;;6.78;2.30;;;23.90;62.30;;;;;;4154574;28;20410;-45
2023/02/07 02:57:32;;;;;;;11.10;6.70;;;24.10;62.00;;;;;;4152975;28;20232;-43
2023/02/07 03:00:42;;;;;;;11.98;7.10;;;24.30;62.60;;;;;;4143501;28;20052;-43
2023/02/07 03:03:17;;;;;;;10.68;6.68;;;24.10;60.80;;;;;;4138971;28;20134;-43
2023/02/07 03:06:03;;;;;;;8.05;5.47;;;23.90;59.90;;;;;;4149205;28;20501;-45
2023/02/07 03:08:56;;;;;;;8.30;4.63;;;23.70;59.60;;;;;;4148851;28;20057;-43
2023/02/07 03:11:22;;;;;;;7.60;4.70;;;23.60;59.30;;;;;;4147838;28;20061;-41
2023/02/07 03:13:50;;;;;;;7.63;3.90;;;23.40;59.10;;;;;;4148477;28;20382;-42
2023/02/07 03:16:35;;;;;;;5.32;3.75;;;23.30;59.00;;;;;;4150324;28;20345;-44
2023/02/07 03:19:24;;;;;;;4.78;3.10;;;23.20;58.90;;;;;;4149290;28;20037;-42
2023/02/07 03:21:58;;;;;;;5.82;3.10;;;23.20;59.00;;;;;;4144222;28;20504;-46
2023/02/07 03:24:28;;;;;;;4.85;2.45;;;23.10;58.90;;;;;;4147969;28;20033;-45
2023/02/07 03:26:53;;;;;;;5.13;2.38;;;23.00;58.70;;;;;;4148509;28;20413;-43
2023/02/07 03:29:19;;;;;;;3.90;2.22;;;23.10;58.80;;;;;;4148379;28;20481;-43
2023/02/07 03:31:44;;;;;;;3.90;2.53;;;23.00;58.80;;;;;;4147256;28;20830;-44
2023/02/07 03:34:15;;;;;;;2.88;1.80;;;23.00;58.60;;;;;;4152378;28;20039;-46
2023/02/07 03:37:02;;;;;;;4.53;2.22;;;22.90;58.60;;;;;;4154651;28;20049;-43
2023/02/07 03:39:25;;;;;;;4.00;2.38;;;22.90;58.60;;;;;;4145403;28;20120;-43
2023/02/07 03:42:02;;;;;;;3.67;2.40;;;22.90;59.00;;;;;;4146947;28;20037;-44
2023/02/07 03:44:27;;;;;;;3.85;2.10;;;22.80;59.10;;;;;;4148860;28;20034;-43
2023/02/07 03:46:51;;;;;;;3.55;2.00;;;22.80;59.00;;;;;;4147545;28;20084;-42
2023/02/07 03:49:16;;;;;;;3.13;1.88;;;22.80;59.10;;;;;;4150516;28;20039;-44
2023/02/07 03:51:38;;;;;;;4.57;2.20;;;22.70;59.20;;;;;;4154671;28;20048;-43
2023/02/07 03:54:01;;;;;;;4.97;1.95;;;22.70;59.20;;;;;;4151662;28;20040;-44
2023/02/07 03:56:23;;;;;;;3.08;2.00;;;22.60;59.20;;;;;;4149208;28;20041;-43
2023/02/07 03:58:46;;;;;;;2.42;1.63;;;22.60;59.30;;;;;;4149364;28;20453;-45
2023/02/07 04:01:08;;;;;;;4.10;2.28;;;22.60;59.30;;;;;;4150150;28;20037;-46
2023/02/07 04:03:31;;;;;;;3.08;1.52;;;22.60;59.20;;;;;;4149924;28;20029;-42
2023/02/07 04:05:54;;;;;;;2.20;1.77;;;22.50;59.30;;;;;;4149748;28;20487;-45
2023/02/07 04:08:16;;;;;;;2.75;1.63;;;22.50;59.20;;;;;;4152129;28;20502;-42
2023/02/07 04:10:38;;;;;;;4.55;2.00;;;22.50;59.40;;;;;;4150032;28;20505;-42
2023/02/07 04:13:01;;;;;;;4.25;1.80;;;22.50;59.40;;;;;;4151546;28;20444;-42
2023/02/07 04:15:23;;;;;;;2.53;1.65;;;22.50;59.30;;;;;;4147445;28;20037;-43
2023/02/07 04:17:46;;;;;;;2.67;1.55;;;22.50;59.10;;;;;;4152019;28;20041;-41
2023/02/07 04:20:09;;;;;;;3.08;1.67;;;22.50;59.00;;;;;;4152589;28;20048;-44
2023/02/07 04:22:31;;;;;;;1.97;1.40;;;22.40;59.20;;;;;;4149048;28;20045;-44
2023/02/07 04:24:54;;;;;;;2.35;1.40;;;22.40;59.30;;;;;;4151460;28;20102;-45
2023/02/07 04:27:17;;;;;;;1.67;1.33;;;22.40;59.20;;;;;;4148073;28;20082;-44
2023/02/07 04:29:39;;;;;;;1.95;1.30;;;22.40;59.10;;;;;;4154883;28;20037;-42
2023/02/07 04:32:02;;;;;;;1.63;1.20;;;22.40;59.30;;;;;;4154042;28;20047;-45
2023/02/07 04:34:24;;;;;;;2.08;1.30;;;22.40;59.20;;;;;;4154983;28;20501;-47
2023/02/07 04:36:47;;;;;;;3.55;1.80;;;22.40;59.30;;;;;;4152584;28;20366;-47
2023/02/07 04:39:09;;;;;;;3.70;1.35;;;22.40;59.00;;;;;;4155152;28;20067;-45
2023/02/07 04:41:31;;;;;;;2.28;1.33;;;22.40;59.00;;;;;;4154569;28;20029;-45
2023/02/07 04:43:54;;;;;;;2.75;1.60;;;22.30;59.00;;;;;;4154781;28;20053;-45
2023/02/07 04:46:16;;;;;;;2.20;1.45;;;22.30;58.70;;;;;;4155042;28;20041;-44
2023/02/07 04:48:39;;;;;;;2.08;1.50;;;22.30;58.60;;;;;;4155535;28;20053;-48
2023/02/07 04:51:01;;;;;;;2.65;1.50;;;22.40;58.70;;;;;;4152786;28;20049;-46
2023/02/07 04:53:24;;;;;;;2.30;1.58;;;22.40;58.80;;;;;;4155953;28;20037;-45
2023/02/07 04:55:51;;;;;;;1.98;1.30;;;22.30;59.00;;;;;;4156096;28;20489;-44
2023/02/07 04:58:13;;;;;;;3.20;1.70;;;22.40;58.90;;;;;;4144304;28;20038;-43
2023/02/07 05:00:36;;;;;;;3.17;1.80;;;22.40;59.10;;;;;;4150901;28;20073;-45
2023/02/07 05:02:58;;;;;;;3.20;1.98;;;22.40;58.90;;;;;;4150452;28;20033;-47
2023/02/07 05:05:21;;;;;;;4.47;3.03;;;22.40;59.00;;;;;;4151858;28;20041;-43
2023/02/07 05:07:43;;;;;;;4.28;2.42;;;22.40;59.10;;;;;;4148246;28;20033;-48
2023/02/07 05:10:06;;;;;;;3.42;2.45;;;22.50;60.00;;;;;;4149675;28;20056;-45
2023/02/07 05:12:29;;;;;;;3.25;2.13;;;22.80;60.40;;;;;;4147854;28;20079;-45
2023/02/07 05:14:51;;;;;;;9.35;3.05;;;23.20;60.20;;;;;;4143880;28;20043;-46
2023/02/07 05:17:14;;;;;;;4.53;2.40;;;23.50;60.20;;;;;;4144404;28;20037;-47
2023/02/07 05:19:36;;;;;;;4.75;3.08;;;23.80;60.20;;;;;;4149480;28;20106;-47
2023/02/07 05:21:59;;;;;;;4.70;3.15;;;24.20;60.00;;;;;;4146608;28;20049;-45
2023/02/07 05:24:21;;;;;;;6.00;3.97;;;24.40;60.10;;;;;;4149819;28;20065;-45
2023/02/07 05:26:43;;;;;;;6.28;4.97;;;24.60;60.10;;;;;;4149111;28;20514;-46
2023/02/07 05:29:06;;;;;;;7.18;5.03;;;24.80;60.40;;;;;;4148822;28;20116;-45
2023/02/07 05:34:08;;;;;;;7.82;5.93;;;25.20;60.20;;;;;;4150765;28;20194;-45
2023/02/07 05:36:31;;;;;;;8.48;5.95;;;25.40;60.20;;;;;;4151125;28;20060;-49
2023/02/07 05:38:53;;;;;;;11.10;6.57;;;25.60;60.30;;;;;;4150113;28;20041;-43
2023/02/07 05:41:16;;;;;;;7.35;6.07;;;25.80;60.20;;;;;;4151410;28;20497;-43
2023/02/07 05:43:38;;;;;;;12.98;10.10;;;26.00;60.10;;;;;;4149553;28;20128;-43
2023/02/07 05:46:00;;;;;;;16.20;12.57;;;26.10;59.20;;;;;;4149113;28;21020;-44
2023/02/07 05:48:23;;;;;;;13.63;12.05;;;25.80;57.20;;;;;;4145435;28;20123;-46
2023/02/07 05:50:45;;;;;;;13.35;10.88;;;25.60;56.70;;;;;;4143671;28;20055;-45
2023/02/07 05:53:09;;;;;;;12.55;11.10;;;25.40;57.80;;;;;;4151262;28;20045;-44
2023/02/07 05:55:31;;;;;;;9.98;8.52;;;25.50;58.30;;;;;;4147200;28;20047;-46
2023/02/07 05:57:54;;;;;;;10.35;8.52;;;25.70;58.20;;;;;;4147187;28;20069;-46
2023/02/07 06:00:18;;;;;;;12.80;10.52;;;26.00;58.00;;;;;;4150438;28;20033;-41
2023/02/07 06:02:40;;;;;;;13.88;11.93;;;26.20;59.60;;;;;;4151199;28;20037;-41
2023/02/07 06:05:03;;;;;;;13.88;12.05;;;26.30;62.80;;;;;;4148339;28;20176;-41
2023/02/07 06:07:25;;;;;;;12.80;11.25;;;26.40;62.60;;;;;;4149306;28;20030;-45
2023/02/07 06:09:48;;;;;;;16.67;11.38;;;26.60;61.90;;;;;;4146410;28;20444;-44
2023/02/07 06:12:10;;;;;;;11.45;10.25;;;26.70;61.40;;;;;;4148042;28;20106;-42
2023/02/07 06:14:33;;;;;;;13.07;9.07;;;26.90;60.80;;;;;;4143461;28;20550;-43
2023/02/07 06:16:55;;;;;;;11.07;9.52;;;27.10;60.50;;;;;;4144398;28;20029;-45
2023/02/07 06:19:18;;;;;;;10.00;8.57;;;27.30;60.00;;;;;;4148525;28;20111;-43
2023/02/07 06:21:40;;;;;;;12.50;9.05;;;27.40;60.00;;;;;;4146228;28;20435;-49
2023/02/07 06:24:03;;;;;;;10.73;8.52;;;27.50;59.40;;;;;;4142728;28;20429;-51
2023/02/07 06:26:25;;;;;;;10.80;8.50;;;27.70;59.20;;;;;;4152177;28;20033;-48
2023/02/07 06:28:47;;;;;;;9.55;8.05;;;27.80;59.00;;;;;;4150454;28;20437;-49
2023/02/07 06:31:10;;;;;;;9.10;7.57;;;28.00;58.70;;;;;;4148614;28;20763;-46
2023/02/07 06:33:32;;;;;;;9.32;7.47;;;28.00;58.40;;;;;;4146596;28;20120;-43
2023/02/07 06:35:55;;;;;;;8.98;7.65;;;28.20;58.40;;;;;;4147431;28;20125;-44
2023/02/07 06:38:18;;;;;;;10.10;8.63;;;28.30;58.20;;;;;;4146331;28;20084;-46
2023/02/07 06:40:40;;;;;;;17.87;15.53;;;28.40;58.50;;;;;;4148009;28;20605;-45
2023/02/07 06:43:03;;;;;;;20.88;18.17;;;28.20;55.60;;;;;;4149779;28;20155;-45
2023/02/07 06:45:25;;;;;;;20.13;16.58;;;27.90;54.40;;;;;;4148604;28;20033;-43
2023/02/07 06:47:48;;;;;;;17.17;15.38;;;27.60;54.70;;;;;;4148267;28;20050;-42
2023/02/07 06:50:10;;;;;;;16.95;13.10;;;27.50;55.50;;;;;;4147506;28;20033;-46
2023/02/07 06:52:33;;;;;;;15.52;13.73;;;27.70;56.10;;;;;;4145787;28;20041;-45
2023/02/07 06:54:55;;;;;;;11.52;10.32;;;27.80;56.20;;;;;;4150178;28;20528;-46
2023/02/07 06:57:17;;;;;;;12.52;10.98;;;28.00;56.30;;;;;;4149715;28;20103;-44
2023/02/07 06:59:40;;;;;;;13.23;10.73;;;28.10;56.40;;;;;;4150570;28;20875;-42
2023/02/07 07:02:03;;;;;;;12.88;10.20;;;28.30;56.80;;;;;;4148929;28;20065;-47
2023/02/07 07:04:25;;;;;;;16.77;14.68;;;28.30;56.80;;;;;;4139427;28;20530;-45
2023/02/07 07:06:48;;;;;;;21.50;19.03;;;28.30;56.80;;;;;;4147699;28;20100;-43
2023/02/07 07:09:11;;;;;;;23.63;20.58;;;28.00;54.50;;;;;;4149921;28;20270;-47
2023/02/07 07:11:33;;;;;;;20.17;18.08;;;27.60;53.70;;;;;;4150034;28;20053;-43
2023/02/07 07:13:56;;;;;;;20.83;18.63;;;27.30;54.00;;;;;;4142486;28;20038;-45
2023/02/07 07:16:18;;;;;;;18.98;16.98;;;27.10;55.00;;;;;;4146834;28;20065;-47
2023/02/07 07:18:41;;;;;;;17.42;15.02;;;27.10;55.50;;;;;;4150654;28;20480;-46
2023/02/07 07:21:04;;;;;;;16.60;14.23;;;27.30;56.00;;;;;;4149640;28;20061;-44
2023/02/07 07:23:26;;;;;;;15.63;13.80;;;27.40;56.30;;;;;;4147188;28;20065;-44
2023/02/07 07:25:49;;;;;;;16.70;13.73;;;27.50;56.60;;;;;;4141685;28;20041;-45
2023/02/07 07:28:11;;;;;;;15.35;13.75;;;27.60;56.70;;;;;;4144830;28;20033;-44
2023/02/07 07:30:33;;;;;;;16.17;13.57;;;27.70;57.00;;;;;;4149249;28;20049;-42
2023/02/07 07:32:56;;;;;;;20.00;17.85;;;27.70;57.20;;;;;;4150035;28;20079;-44
2023/02/07 07:35:19;;;;;;;21.88;19.52;;;27.60;55.40;;;;;;4150925;28;20189;-47
2023/02/07 07:37:41;;;;;;;19.87;17.47;;;27.30;54.50;;;;;;4147621;28;20072;-44
2023/02/07 07:40:04;;;;;;;17.58;15.73;;;27.00;54.60;;;;;;4148680;28;20730;-46
2023/02/07 07:42:27;;;;;;;18.30;15.93;;;26.90;55.10;;;;;;4149868;28;20516;-45
2023/02/07 07:44:49;;;;;;;15.57;13.80;;;26.90;55.50;;;;;;4150606;28;20037;-48
2023/02/07 07:47:12;;;;;;;14.65;12.57;;;27.00;55.60;;;;;;4148650;28;20056;-45
2023/02/07 07:49:35;;;;;;;14.30;12.75;;;27.10;55.80;;;;;;4148971;28;20391;-46
2023/02/07 07:51:57;;;;;;;13.55;11.88;;;27.30;56.10;;;;;;4148649;28;20124;-49
2023/02/07 07:54:20;;;;;;;12.90;11.55;;;27.30;56.20;;;;;;4149658;28;20033;-46
2023/02/07 07:56:42;;;;;;;12.20;10.90;;;27.40;57.00;;;;;;4148925;28;20049;-46
2023/02/07 07:59:04;;;;;;;19.33;17.25;;;27.50;56.50;;;;;;4146594;28;20165;-43
2023/02/07 08:01:27;;;;;;;23.20;20.77;;;27.50;56.00;;;;;;4147911;28;20033;-43
2023/02/07 08:03:50;;;;;;;22.30;19.92;;;27.20;55.10;;;;;;4151332;28;20144;-43
2023/02/07 08:06:12;;;;;;;20.23;18.13;;;26.90;53.70;;;;;;4149362;28;20041;-46
2023/02/07 08:08:35;;;;;;;19.17;15.40;;;26.70;54.60;;;;;;4149497;28;20100;-44
2023/02/07 08:11:02;;;;;;;15.60;13.88;;;26.70;54.90;;;;;;4149095;28;20075;-45
2023/02/07 08:13:25;;;;;;;15.38;13.00;;;26.70;55.20;;;;;;4149034;28;20373;-43
2023/02/07 08:15:47;;;;;;;13.32;11.93;;;26.80;55.40;;;;;;4147013;28;20444;-43
2023/02/07 08:18:10;;;;;;;14.40;12.82;;;26.90;55.50;;;;;;4148419;28;20846;-43
2023/02/07 08:20:32;;;;;;;13.77;12.27;;;27.00;55.80;;;;;;4147664;28;20046;-43
2023/02/07 08:22:56;;;;;;;13.70;11.55;;;27.10;56.20;;;;;;4149778;28;20146;-47
2023/02/07 08:25:18;;;;;;;15.25;13.65;;;27.20;56.30;;;;;;4148012;28;20041;-44
2023/02/07 08:27:41;;;;;;;21.70;19.30;;;27.30;57.40;;;;;;4149604;28;20112;-45
2023/02/07 08:30:06;;;;;;;24.90;20.05;;;27.10;55.20;;;;;;4149728;28;20049;-43
2023/02/07 08:32:28;;;;;;;19.05;17.08;;;26.80;54.00;;;;;;4147708;28;20083;-40
2023/02/07 08:34:51;;;;;;;19.90;17.42;;;26.60;54.70;;;;;;4149109;28;20037;-43
2023/02/07 08:37:13;;;;;;;17.40;15.52;;;26.50;54.70;;;;;;4151421;28;20085;-45
2023/02/07 08:39:36;;;;;;;17.30;15.50;;;26.60;55.50;;;;;;4147822;28;20606;-49
2023/02/07 08:41:59;;;;;;;15.90;14.20;;;26.60;55.80;;;;;;4150161;28;20037;-43
2023/02/07 08:44:21;;;;;;;15.05;13.52;;;26.70;56.10;;;;;;4148754;28;20036;-44
2023/02/07 08:46:43;;;;;;;13.77;12.30;;;26.70;56.20;;;;;;4151203;28;20037;-44
2023/02/07 08:49:06;;;;;;;14.98;13.40;;;26.90;56.30;;;;;;4145672;28;20068;-45
2023/02/07 08:51:29;;;;;;;20.97;16.53;;;26.90;56.50;;;;;;4146585;28;20053;-44
2023/02/07 08:53:52;;;;;;;21.08;18.77;;;27.00;56.20;;;;;;4141196;28;20060;-44
2023/02/07 08:56:14;;;;;;;20.42;18.23;;;26.80;54.70;;;;;;4148527;28;20399;-47
2023/02/07 08:58:37;;;;;;;18.70;16.67;;;26.50;53.90;;;;;;4150336;28;20493;-44
2023/02/07 09:00:59;;;;;;;16.85;15.15;;;26.40;54.90;;;;;;4147168;28;20048;-46
2023/02/07 09:03:22;;;;;;;16.63;14.85;;;26.40;55.40;;;;;;4145029;28;20068;-43
2023/02/07 09:05:44;;;;;;;15.65;14.05;;;26.50;55.70;;;;;;4144790;28;20037;-42
2023/02/07 09:08:06;;;;;;;15.25;13.65;;;26.60;56.00;;;;;;4145256;28;20041;-45
2023/02/07 09:10:29;;;;;;;16.50;14.68;;;26.70;56.10;;;;;;4146631;28;20524;-44
2023/02/07 09:12:51;;;;;;;15.18;13.45;;;26.80;56.60;;;;;;4145780;28;20041;-46
2023/02/07 09:15:14;;;;;;;16.00;14.23;;;26.90;57.00;;;;;;4147157;28;20033;-48
2023/02/07 09:17:36;;;;;;;16.40;14.68;;;27.00;57.30;;;;;;4148808;28;20510;-40
2023/02/07 09:19:59;;;;;;;19.05;17.08;;;27.00;57.50;;;;;;4143483;28;20835;-45
2023/02/07 09:22:21;;;;;;;20.23;18.13;;;26.80;55.40;;;;;;4148076;28;20033;-45
2023/02/07 09:24:44;;;;;;;20.08;18.08;;;26.60;54.60;;;;;;4148781;28;20546;-46
2023/02/07 09:27:07;;;;;;;17.40;15.70;;;26.30;54.60;;;;;;4148483;28;20469;-49
2023/02/07 09:29:29;;;;;;;17.93;16.17;;;26.30;55.70;;;;;;4146213;28;20233;-41
2023/02/07 09:31:52;;;;;;;16.92;14.90;;;26.40;56.40;;;;;;4143794;28;20115;-45
2023/02/07 09:34:15;;;;;;;15.05;13.55;;;26.50;56.70;;;;;;4144683;28;20407;-45
2023/02/07 09:36:37;;;;;;;15.15;12.73;;;26.60;56.90;;;;;;4148181;28;20993;-43
2023/02/07 09:39:00;;;;;;;13.02;11.27;;;26.60;57.10;;;;;;4151707;28;20044;-44
2023/02/07 09:41:33;;;;;;;13.87;11.90;;;26.80;57.30;;;;;;4146392;28;21140;-42
2023/02/07 09:44:03;;;;;;;16.25;14.63;;;26.80;57.30;;;;;;4148498;28;20065;-41
2023/02/07 09:46:34;;;;;;;18.00;16.20;;;26.80;56.70;;;;;;4149137;28;20041;-44
2023/02/07 09:49:05;;;;;;;18.92;16.95;;;26.60;55.20;;;;;;4150671;28;20493;-41
2023/02/07 09:51:28;;;;;;;17.08;15.30;;;26.40;54.50;;;;;;4149072;28;20696;-41
2023/02/07 09:54:00;;;;;;;15.83;14.13;;;26.20;55.10;;;;;;4150228;28;20138;-44
2023/02/07 09:56:26;;;;;;;14.13;12.73;;;26.30;55.80;;;;;;4149885;28;20049;-43
2023/02/07 09:59:09;;;;;;;12.63;11.38;;;26.30;56.00;;;;;;4148925;28;20095;-43
2023/02/07 10:01:43;;;;;;;11.10;10.00;;;26.50;56.40;;;;;;4152000;28;20540;-42
2023/02/07 10:04:17;;;;;;;11.07;9.97;;;26.50;56.60;;;;;;4150832;28;20491;-42
2023/02/07 10:06:44;;;;;;;10.32;9.32;;;26.60;56.80;;;;;;4147534;28;20357;-42
2023/02/07 10:09:16;;;;;;;16.98;15.25;;;26.70;56.90;;;;;;4146443;28;20042;-45
2023/02/07 10:11:44;;;;;;;18.65;16.75;;;26.70;56.20;;;;;;4146334;28;20045;-43
2023/02/07 10:14:43;;;;;;;18.83;16.95;;;26.50;54.70;;;;;;4147405;28;20052;-47
2023/02/07 10:17:32;;;;;;;18.23;16.42;;;26.30;54.50;;;;;;4147050;28;20048;-41
2023/02/07 10:20:38;;;;;;;14.45;13.05;;;26.10;54.50;;;;;;4146802;28;20041;-42
2023/02/07 10:23:16;;;;;;;14.40;12.90;;;26.10;54.80;;;;;;4149058;28;20048;-45
2023/02/07 10:26:00;;;;;;;13.82;12.43;;;26.30;55.20;;;;;;4150835;28;20145;-43
2023/02/07 10:28:32;;;;;;;12.82;11.57;;;26.50;55.50;;;;;;4149603;28;20138;-47
2023/02/07 10:30:59;;;;;;;10.85;9.75;;;26.60;55.70;;;;;;4144427;28;20050;-41
2023/02/07 10:33:31;;;;;;;10.65;9.52;;;26.70;55.80;;;;;;4144522;28;20037;-42
2023/02/07 10:35:56;;;;;;;11.07;9.98;;;26.80;56.00;;;;;;4143579;28;20045;-47
2023/02/07 10:38:35;;;;;;;10.90;9.80;;;26.90;56.00;;;;;;4149856;28;20103;-44
2023/02/07 10:41:17;;;;;;;11.32;10.13;;;27.00;56.30;;;;;;4144723;28;20037;-48
2023/02/07 10:43:43;;;;;;;9.82;8.82;;;27.00;56.50;;;;;;4149066;28;20046;-45
2023/02/07 10:46:13;;;;;;;9.88;8.80;;;27.10;56.50;;;;;;4149108;28;20067;-44
2023/02/07 10:48:36;;;;;;;9.57;8.43;;;27.20;56.60;;;;;;4147898;28;20041;-44
2023/02/07 10:51:31;;;;;;;9.98;8.52;;;27.30;56.90;;;;;;4148213;28;20056;-42
2023/02/07 10:54:11;;;;;;;13.75;8.02;;;27.30;57.00;;;;;;4148312;28;20070;-43
2023/02/07 10:56:39;;;;;;;9.20;7.55;;;27.40;57.30;;;;;;4150752;28;20048;-42
2023/02/07 10:59:02;;;;;;;10.95;7.15;;;27.50;57.50;;;;;;4153082;28;20041;-42
2023/02/07 11:01:31;;;;;;;10.57;7.43;;;27.50;57.60;;;;;;4154207;28;20394;-46
2023/02/07 11:03:53;;;;;;;9.07;7.10;;;27.60;57.50;;;;;;4151489;28;20049;-44
2023/02/07 11:06:25;;;;;;;8.05;6.05;;;27.70;57.60;;;;;;4153069;28;20083;-44
2023/02/07 11:08:48;;;;;;;8.20;5.85;;;27.70;57.50;;;;;;4153075;28;20029;-45
2023/02/07 11:11:19;;;;;;;21.45;6.15;;;27.70;57.50;;;;;;4151030;28;20131;-51
2023/02/07 11:13:50;;;;;;;7.38;5.43;;;27.80;57.50;;;;;;4153924;28;20697;-44
2023/02/07 11:16:17;;;;;;;6.35;5.10;;;27.80;57.60;;;;;;4157675;28;20065;-46
2023/02/07 11:19:03;;;;;;;6.82;5.63;;;27.80;57.60;;;;;;4151925;28;20111;-49
2023/02/07 11:21:33;;;;;;;6.78;5.07;;;27.80;57.60;;;;;;4157711;28;20103;-43
2023/02/07 11:24:12;;;;;;;6.95;4.40;;;27.80;57.80;;;;;;4151773;28;20076;-48
2023/02/07 11:26:46;;;;;;;7.35;4.78;;;27.70;58.00;;;;;;4153959;28;20044;-44
2023/02/07 11:29:16;;;;;;;;;;;27.70;58.20;;;;;;4158169;28;20120;-43
2023/02/07 11:31:38;;;;;;;5.05;3.63;;;27.70;58.40;;;;;;4156567;28;19925;-44
2023/02/07 11:34:26;;;;;;;4.47;3.58;;;27.70;58.50;;;;;;4156224;28;20563;-45
2023/02/07 11:36:48;;;;;;;4.40;3.20;;;27.70;58.40;;;;;;4156385;28;20499;-46
2023/02/07 11:39:18;;;;;;;5.15;3.30;;;27.70;58.40;;;;;;4156063;28;20045;-46
2023/02/07 11:41:40;;;;;;;4.45;3.38;;;27.80;58.50;;;;;;4155130;28;20569;-46
2023/02/07 11:44:16;;;;;;;3.63;2.67;;;27.70;58.50;;;;;;4152159;28;20049;-43
2023/02/07 11:46:41;;;;;;;4.05;2.58;;;27.80;58.60;;;;;;4157975;28;20050;-43
2023/02/07 11:49:19;;;;;;;4.43;2.70;;;27.80;58.70;;;;;;4155310;28;20041;-46
2023/02/07 11:51:42;;;;;;;3.55;2.58;;;27.80;58.70;;;;;;4153831;28;20079;-44
2023/02/07 11:54:06;;;;;;;4.53;2.40;;;27.80;58.60;;;;;;4157813;28;20045;-50
2023/02/07 11:56:40;;;;;;;3.45;2.22;;;27.80;58.60;;;;;;4151853;28;20136;-40
2023/02/07 11:59:14;;;;;;;3.33;2.45;;;27.80;58.70;;;;;;4153923;28;20040;-40
2023/02/07 12:01:37;;;;;;;3.17;2.40;;;27.90;58.80;;;;;;4152618;28;20041;-41
2023/02/07 12:04:08;;;;;;;2.92;2.15;;;27.90;58.70;;;;;;4156185;28;20100;-43
2023/02/07 12:06:38;;;;;;;3.60;2.40;;;27.90;58.70;;;;;;4152817;28;20038;-43
2023/02/07 12:09:02;;;;;;;3.78;1.95;;;27.90;58.70;;;;;;4153501;28;20081;-42
2023/02/07 12:11:31;;;;;;;2.95;1.92;;;27.90;58.70;;;;;;4151971;28;20053;-44
2023/02/07 12:14:22;;;;;;;2.70;1.83;;;27.90;58.70;;;;;;4155581;28;20097;-44
2023/02/07 12:16:51;;;;;;;2.85;1.83;;;28.00;58.80;;;;;;4154379;28;20474;-46
2023/02/07 12:19:22;;;;;;;2.97;1.77;;;28.00;58.80;;;;;;4152841;28;20108;-46
2023/02/07 12:21:56;;;;;;;2.35;1.67;;;28.00;58.70;;;;;;4154149;28;20041;-44
2023/02/07 12:24:51;;;;;;;2.42;1.80;;;28.00;58.70;;;;;;4154858;28;20045;-43
2023/02/07 12:27:15;;;;;;;2.03;1.67;;;28.00;58.70;;;;;;4151172;28;20064;-44
2023/02/07 12:29:47;;;;;;;2.83;2.03;;;28.00;58.70;;;;;;4153027;28;20037;-42
2023/02/07 12:32:27;;;;;;;2.08;1.48;;;28.00;58.70;;;;;;4155598;28;20053;-46
2023/02/07 12:35:14;;;;;;;6.38;1.80;;;28.00;59.40;;;;;;4156510;28;20095;-45
2023/02/07 12:37:52;;;;;;;2.80;1.63;;;28.10;58.70;;;;;;4149845;28;20049;-43
2023/02/07 12:40:19;;;;;;;3.63;1.50;;;28.10;58.80;;;;;;4149446;28;20045;-42
2023/02/07 12:43:19;;;;;;;2.20;1.55;;;28.10;58.70;;;;;;4156707;28;20471;-48